createdAt,value
2022-09-07T00:01:53.473Z,23.50
2022-09-07T00:04:20.221Z,23.50
2022-09-07T00:06:46.925Z,23.50
2022-09-07T00:09:13.684Z,23.40
2022-09-07T00:11:40.389Z,23.50
2022-09-07T00:14:07.759Z,23.40
2022-09-07T00:16:34.651Z,23.40
2022-09-07T00:19:03.678Z,23.40
2022-09-07T00:21:30.993Z,23.40
2022-09-07T00:23:57.781Z,23.30
2022-09-07T00:26:27.144Z,23.30
2022-09-07T00:28:57.459Z,23.40
2022-09-07T00:31:24.780Z,23.30
2022-09-07T00:33:52.519Z,23.20
2022-09-07T00:36:20.111Z,23.20
2022-09-07T00:38:47.356Z,23.20
2022-09-07T00:41:14.816Z,23.20
2022-09-07T00:43:50.487Z,23.20
2022-09-07T00:46:22.952Z,23.20
2022-09-07T00:49:13.119Z,23.10
2022-09-07T00:51:44.093Z,23.10
2022-09-07T00:54:22.530Z,23.10
2022-09-07T00:56:50.486Z,23.10
2022-09-07T00:59:21.803Z,23.10
2022-09-07T01:01:48.725Z,23.10
2022-09-07T01:04:16.245Z,23.00
2022-09-07T01:06:43.543Z,23.00
2022-09-07T01:09:12.969Z,23.00
2022-09-07T01:11:39.938Z,23.00
2022-09-07T01:14:08.682Z,23.00
2022-09-07T01:17:05.770Z,23.00
2022-09-07T01:20:03.812Z,23.00
2022-09-07T01:22:33.248Z,22.90
2022-09-07T01:25:26.525Z,22.90
2022-09-07T01:28:23.193Z,22.90
2022-09-07T01:30:57.597Z,22.80
2022-09-07T01:33:44.510Z,22.80
2022-09-07T01:36:38.797Z,22.80
2022-09-07T01:39:06.466Z,22.80
2022-09-07T01:42:01.074Z,22.80
2022-09-07T01:44:32.400Z,22.80
2022-09-07T01:47:09.493Z,22.80
2022-09-07T01:49:56.173Z,22.80
2022-09-07T01:52:54.879Z,22.80
2022-09-07T01:55:34.380Z,22.70
2022-09-07T01:58:06.837Z,22.80
2022-09-07T02:00:34.816Z,22.70
2022-09-07T02:03:11.358Z,22.70
2022-09-07T02:05:45.629Z,22.70
2022-09-07T02:08:20.929Z,22.70
2022-09-07T02:11:02.274Z,22.70
2022-09-07T02:13:36.096Z,22.70
2022-09-07T02:16:07.634Z,22.70
2022-09-07T02:18:39.539Z,22.70
2022-09-07T02:21:08.070Z,22.70
2022-09-07T02:23:40.255Z,22.70
2022-09-07T02:26:12.310Z,22.70
2022-09-07T02:28:39.678Z,22.70
2022-09-07T02:31:06.641Z,22.70
2022-09-07T02:33:33.438Z,22.70
2022-09-07T02:36:01.480Z,22.70
2022-09-07T02:38:28.227Z,22.70
2022-09-07T02:40:56.662Z,22.70
2022-09-07T02:43:24.863Z,22.70
2022-09-07T02:46:18.985Z,22.70
2022-09-07T02:49:08.104Z,22.70
2022-09-07T02:52:04.136Z,22.70
2022-09-07T02:54:58.156Z,22.70
2022-09-07T02:58:00.738Z,22.60
2022-09-07T03:00:31.212Z,22.60
2022-09-07T03:03:12.160Z,22.60
2022-09-07T03:05:47.499Z,22.60
2022-09-07T03:08:20.813Z,22.60
2022-09-07T03:10:48.055Z,22.60
2022-09-07T03:13:26.776Z,22.50
2022-09-07T03:15:56.231Z,22.60
2022-09-07T03:18:24.355Z,22.60
2022-09-07T03:20:51.116Z,22.60
2022-09-07T03:23:17.794Z,22.60
2022-09-07T03:25:44.480Z,22.60
2022-09-07T03:28:11.348Z,22.60
2022-09-07T03:30:42.806Z,22.50
2022-09-07T03:33:09.976Z,22.50
2022-09-07T03:35:36.634Z,22.50
2022-09-07T03:38:03.296Z,22.60
2022-09-07T03:40:30.116Z,22.60
2022-09-07T03:42:56.795Z,22.50
2022-09-07T03:45:23.454Z,22.60
2022-09-07T03:47:51.142Z,22.60
2022-09-07T03:50:17.875Z,22.60
2022-09-07T03:52:44.853Z,22.50
2022-09-07T03:55:11.554Z,22.50
2022-09-07T03:57:39.115Z,22.50
2022-09-07T04:00:06.293Z,22.50
2022-09-07T04:02:33.129Z,22.50
2022-09-07T04:04:59.898Z,22.40
2022-09-07T04:07:26.540Z,22.50
2022-09-07T04:09:53.210Z,22.40
2022-09-07T04:12:19.954Z,22.40
2022-09-07T04:14:47.186Z,22.40
2022-09-07T04:17:13.894Z,22.40
2022-09-07T04:19:40.604Z,22.40
2022-09-07T04:22:07.251Z,22.40
2022-09-07T04:24:33.933Z,22.40
2022-09-07T04:27:02.041Z,22.40
2022-09-07T04:29:28.717Z,22.40
2022-09-07T04:31:55.403Z,22.40
2022-09-07T04:34:22.109Z,22.30
2022-09-07T04:36:48.963Z,22.30
2022-09-07T04:39:15.613Z,22.30
2022-09-07T04:41:42.403Z,22.30
2022-09-07T04:44:12.612Z,22.30
2022-09-07T04:46:42.880Z,22.30
2022-09-07T04:49:11.130Z,22.30
2022-09-07T04:51:38.791Z,22.30
2022-09-07T04:54:06.218Z,22.20
2022-09-07T04:56:33.090Z,22.20
2022-09-07T04:59:01.225Z,22.20
2022-09-07T05:01:28.744Z,22.20
2022-09-07T05:03:55.528Z,22.20
2022-09-07T05:06:23.128Z,22.10
2022-09-07T05:08:51.646Z,22.20
2022-09-07T05:11:21.216Z,22.20
2022-09-07T05:13:49.921Z,22.10
2022-09-07T05:16:22.747Z,22.10
2022-09-07T05:18:51.201Z,22.10
2022-09-07T05:21:23.804Z,22.10
2022-09-07T05:23:52.486Z,22.10
2022-09-07T05:26:20.478Z,22.00
2022-09-07T05:28:47.159Z,22.00
2022-09-07T05:36:39.249Z,22.00
2022-09-07T05:39:07.068Z,22.00
2022-09-07T05:41:33.815Z,22.00
2022-09-07T05:46:47.189Z,22.00
2022-09-07T05:49:13.898Z,22.00
2022-09-07T05:51:41.102Z,22.00
2022-09-07T05:54:07.893Z,22.00
2022-09-07T05:56:37.330Z,21.90
2022-09-07T05:59:04.250Z,21.90
2022-09-07T06:01:31.732Z,22.00
2022-09-07T06:03:58.786Z,22.00
2022-09-07T06:06:25.498Z,22.00
2022-09-07T06:08:53.267Z,22.00
2022-09-07T06:11:24.203Z,22.00
2022-09-07T06:13:51.972Z,22.00
2022-09-07T06:16:19.729Z,22.10
2022-09-07T06:18:48.644Z,22.10
2022-09-07T06:21:17.901Z,22.10
2022-09-07T06:23:45.976Z,22.10
2022-09-07T06:26:13.752Z,22.10
2022-09-07T06:28:42.389Z,22.20
2022-09-07T06:31:11.638Z,22.20
2022-09-07T06:33:38.338Z,22.20
2022-09-07T06:36:07.597Z,22.30
2022-09-07T06:38:36.835Z,22.30
2022-09-07T06:43:59.474Z,22.40
2022-09-07T06:49:13.756Z,22.40
2022-09-07T06:51:40.416Z,22.40
2022-09-07T06:56:53.800Z,22.40
2022-09-07T06:59:20.514Z,22.50
2022-09-07T07:01:47.301Z,22.50
2022-09-07T07:04:14.451Z,22.50
2022-09-07T07:06:41.152Z,22.60
2022-09-07T07:09:08.896Z,22.70
2022-09-07T07:11:37.561Z,22.70
2022-09-07T07:14:04.483Z,22.70
2022-09-07T07:16:31.572Z,22.80
2022-09-07T07:18:58.429Z,22.90
2022-09-07T07:21:25.172Z,22.90
2022-09-07T07:23:52.857Z,23.00
2022-09-07T07:26:26.720Z,23.00
2022-09-07T07:29:03.712Z,23.10
2022-09-07T07:31:33.133Z,23.10
2022-09-07T07:33:59.861Z,23.10
2022-09-07T07:36:28.135Z,23.20
2022-09-07T07:44:18.289Z,23.40
2022-09-07T07:46:48.702Z,23.50
2022-09-07T07:49:15.990Z,23.40
2022-09-07T07:54:29.348Z,23.80
2022-09-07T07:56:56.128Z,24.00
2022-09-07T07:59:23.010Z,24.10
2022-09-07T08:01:49.807Z,24.20
2022-09-07T08:04:16.781Z,24.30
2022-09-07T08:06:43.562Z,24.40
2022-09-07T08:09:11.247Z,24.50
2022-09-07T08:11:40.139Z,24.60
2022-09-07T08:14:08.617Z,24.80
2022-09-07T08:16:36.324Z,24.90
2022-09-07T08:19:03.350Z,25.00
2022-09-07T08:21:30.005Z,25.10
2022-09-07T08:23:56.720Z,25.10
2022-09-07T08:26:23.420Z,25.30
2022-09-07T08:28:50.085Z,25.40
2022-09-07T08:31:17.426Z,25.30
2022-09-07T08:33:44.881Z,25.50
2022-09-07T08:36:15.688Z,25.70
2022-09-07T08:38:42.485Z,25.70
2022-09-07T08:41:32.059Z,25.80
2022-09-07T08:44:23.524Z,25.90
2022-09-07T08:46:57.454Z,26.10
2022-09-07T08:49:30.342Z,26.20
2022-09-07T08:52:08.588Z,26.20
2022-09-07T08:54:36.193Z,26.30
2022-09-07T09:00:07.750Z,26.60
2022-09-07T09:02:42.019Z,26.70
2022-09-07T09:05:34.867Z,26.80
2022-09-07T09:08:15.017Z,26.90
2022-09-07T09:11:07.545Z,27.00
2022-09-07T09:13:54.904Z,27.10
2022-09-07T09:16:44.252Z,27.20
2022-09-07T09:19:39.692Z,27.30
2022-09-07T09:22:19.196Z,27.40
2022-09-07T09:24:49.024Z,27.50
2022-09-07T09:27:16.058Z,27.60
2022-09-07T09:29:42.838Z,27.70
2022-09-07T09:32:39.823Z,27.80
2022-09-07T09:35:16.662Z,27.90
2022-09-07T09:37:44.160Z,28.00
2022-09-07T09:40:28.245Z,28.00
2022-09-07T09:43:16.820Z,28.20
2022-09-07T09:48:36.570Z,28.30
2022-09-07T09:54:07.667Z,28.50
2022-09-07T09:56:39.448Z,28.60
2022-09-07T10:05:42.280Z,28.80
2022-09-07T10:08:37.060Z,28.90
2022-09-07T10:11:12.406Z,29.00
2022-09-07T10:13:54.862Z,29.10
2022-09-07T10:16:38.487Z,29.10
2022-09-07T10:19:05.123Z,29.20
2022-09-07T10:21:32.192Z,29.30
2022-09-07T10:24:00.224Z,29.40
2022-09-07T10:26:31.594Z,29.40
2022-09-07T10:29:13.372Z,29.70
2022-09-07T10:31:47.735Z,29.60
2022-09-07T10:34:35.492Z,29.60
2022-09-07T10:37:04.775Z,29.70
2022-09-07T10:39:34.771Z,29.70
2022-09-07T10:42:26.160Z,29.70
2022-09-07T10:45:21.140Z,29.80
2022-09-07T10:48:09.058Z,29.90
2022-09-07T10:50:53.413Z,29.90
2022-09-07T10:53:44.186Z,30.00
2022-09-07T10:56:13.150Z,30.00
2022-09-07T10:59:10.466Z,30.00
2022-09-07T11:02:17.539Z,30.10
2022-09-07T11:05:04.233Z,30.10
2022-09-07T11:08:04.819Z,30.20
2022-09-07T11:10:48.857Z,30.20
2022-09-07T11:13:23.234Z,30.20
2022-09-07T11:15:54.833Z,30.20
2022-09-07T11:18:52.963Z,30.20
2022-09-07T11:24:34.159Z,30.20
2022-09-07T11:27:06.566Z,30.20
2022-09-07T11:29:38.720Z,30.30
2022-09-07T11:32:09.727Z,30.30
2022-09-07T11:35:06.355Z,30.30
2022-09-07T11:37:43.721Z,30.30
2022-09-07T11:40:21.585Z,30.40
2022-09-07T11:43:14.875Z,30.40
2022-09-07T11:45:50.457Z,30.50
2022-09-07T11:48:33.405Z,30.50
2022-09-07T11:51:04.892Z,30.50
2022-09-07T11:53:37.446Z,30.50
2022-09-07T11:56:18.550Z,30.60
2022-09-07T11:59:09.806Z,30.60
2022-09-07T12:02:09.155Z,30.60
2022-09-07T12:05:07.568Z,30.70
2022-09-07T12:08:02.121Z,30.70
2022-09-07T12:10:50.267Z,30.70
2022-09-07T12:13:40.032Z,30.70
2022-09-07T12:16:19.878Z,30.80
2022-09-07T12:19:01.618Z,30.80
2022-09-07T12:21:40.404Z,30.80
2022-09-07T12:24:44.508Z,30.90
2022-09-07T12:27:31.431Z,30.90
2022-09-07T12:29:58.030Z,30.90
2022-09-07T12:32:56.928Z,30.90
2022-09-07T12:35:30.901Z,31.00
2022-09-07T12:37:58.765Z,31.00
2022-09-07T12:40:32.175Z,31.00
2022-09-07T12:43:13.924Z,31.00
2022-09-07T12:45:40.512Z,31.10
2022-09-07T12:48:16.027Z,31.10
2022-09-07T12:54:18.077Z,31.20
2022-09-07T13:00:04.275Z,31.40
2022-09-07T13:02:42.898Z,31.40
2022-09-07T13:05:52.857Z,31.50
2022-09-07T13:08:28.473Z,31.60
2022-09-07T13:10:55.193Z,31.70
2022-09-07T13:16:14.450Z,31.80
2022-09-07T13:18:42.502Z,31.90
2022-09-07T13:21:09.158Z,31.90
2022-09-07T13:23:49.430Z,32.00
2022-09-07T13:26:51.325Z,32.00
2022-09-07T13:29:21.908Z,32.10
2022-09-07T13:35:23.944Z,32.30
2022-09-07T13:37:59.712Z,32.50
2022-09-07T13:40:28.709Z,32.60
2022-09-07T13:42:56.320Z,32.60
2022-09-07T13:45:34.171Z,32.70
2022-09-07T13:48:01.533Z,32.80
2022-09-07T13:50:36.664Z,32.90
2022-09-07T13:53:09.290Z,33.00
2022-09-07T13:55:46.447Z,33.10
2022-09-07T13:58:17.970Z,33.20
2022-09-07T14:00:55.067Z,33.30
2022-09-07T14:03:23.728Z,33.40
2022-09-07T14:06:33.591Z,33.50
2022-09-07T14:09:20.479Z,33.60
2022-09-07T14:11:49.870Z,33.70
2022-09-07T14:14:19.330Z,33.80
2022-09-07T14:16:49.423Z,34.00
2022-09-07T14:19:24.313Z,34.10
2022-09-07T14:21:55.951Z,34.10
2022-09-07T14:24:40.526Z,34.20
2022-09-07T14:27:25.949Z,34.30
2022-09-07T14:29:53.007Z,34.40
2022-09-07T14:32:27.140Z,34.50
2022-09-07T14:34:54.245Z,34.50
2022-09-07T14:37:23.167Z,34.60
2022-09-07T14:39:51.054Z,34.70
2022-09-07T14:42:22.896Z,34.70
2022-09-07T14:44:50.225Z,34.80
2022-09-07T14:47:30.413Z,34.80
2022-09-07T14:50:04.185Z,34.80
2022-09-07T14:52:44.159Z,34.80
2022-09-07T14:55:35.942Z,34.80
2022-09-07T14:58:08.697Z,34.80
2022-09-07T15:00:35.496Z,34.80
2022-09-07T15:06:02.950Z,34.80
2022-09-07T15:08:41.822Z,34.80
2022-09-07T15:14:08.718Z,34.70
2022-09-07T15:16:38.600Z,34.70
2022-09-07T15:19:18.540Z,34.70
2022-09-07T15:21:45.601Z,34.70
2022-09-07T15:24:12.528Z,34.60
2022-09-07T15:29:32.498Z,34.50
2022-09-07T15:32:04.932Z,34.50
2022-09-07T15:34:34.364Z,34.50
2022-09-07T15:37:01.857Z,34.40
2022-09-07T15:39:35.550Z,34.40
2022-09-07T15:42:59.486Z,34.30
2022-09-07T15:44:50.291Z,34.20
2022-09-07T15:50:05.942Z,34.10
2022-09-07T15:52:32.962Z,34.10
2022-09-07T15:54:59.903Z,34.00
2022-09-07T16:00:16.404Z,33.90
2022-09-07T16:05:31.448Z,33.70
2022-09-07T16:10:53.519Z,33.70
2022-09-07T16:13:24.548Z,33.50
2022-09-07T16:16:02.322Z,33.50
2022-09-07T16:18:31.372Z,33.20
2022-09-07T16:21:12.406Z,33.40
2022-09-07T16:23:48.861Z,33.30
2022-09-07T16:26:17.787Z,33.00
2022-09-07T16:28:46.762Z,33.20
2022-09-07T16:34:49.604Z,31.60
2022-09-07T16:37:17.080Z,32.90
2022-09-07T16:39:44.083Z,33.00
2022-09-07T16:42:10.946Z,32.80
2022-09-07T16:44:37.693Z,32.80
2022-09-07T16:47:04.599Z,32.70
2022-09-07T16:49:31.564Z,32.70
2022-09-07T16:51:59.111Z,32.70
2022-09-07T16:54:26.492Z,32.60
2022-09-07T16:56:53.408Z,32.50
2022-09-07T16:59:26.152Z,32.50
2022-09-07T17:01:53.493Z,32.40
2022-09-07T17:04:20.607Z,32.40
2022-09-07T17:06:47.406Z,32.30
2022-09-07T17:09:14.778Z,32.30
2022-09-07T17:11:42.336Z,32.30
2022-09-07T17:14:09.181Z,32.20
2022-09-07T17:16:38.630Z,32.10
2022-09-07T17:21:55.481Z,32.00
2022-09-07T17:24:24.767Z,32.00
2022-09-07T17:26:53.270Z,31.90
2022-09-07T17:29:32.421Z,31.90
2022-09-07T17:35:09.497Z,31.70
2022-09-07T17:37:52.317Z,31.60
2022-09-07T17:40:24.384Z,31.60
2022-09-07T17:45:42.759Z,31.50
2022-09-07T17:48:10.004Z,31.40
2022-09-07T17:50:37.035Z,31.40
2022-09-07T17:53:03.852Z,31.60
2022-09-07T17:55:32.003Z,31.30
2022-09-07T17:58:04.895Z,31.20
2022-09-07T18:00:31.721Z,31.20
2022-09-07T18:02:59.026Z,31.10
2022-09-07T18:05:26.049Z,31.00
2022-09-07T18:07:52.828Z,31.00
2022-09-07T18:10:19.658Z,30.90
2022-09-07T18:12:47.923Z,30.80
2022-09-07T18:15:16.114Z,30.80
2022-09-07T18:17:42.771Z,30.70
2022-09-07T18:20:09.599Z,30.70
2022-09-07T18:22:36.391Z,30.60
2022-09-07T18:25:03.799Z,30.60
2022-09-07T18:27:31.087Z,30.50
2022-09-07T18:29:57.744Z,30.50
2022-09-07T18:32:24.392Z,30.40
2022-09-07T18:34:51.107Z,30.30
2022-09-07T18:37:19.239Z,30.30
2022-09-07T18:39:46.686Z,30.20
2022-09-07T18:42:13.300Z,30.20
2022-09-07T18:47:29.392Z,30.10
2022-09-07T18:49:57.003Z,30.00
2022-09-07T18:55:10.551Z,29.90
2022-09-07T18:57:37.797Z,29.80
2022-09-07T19:00:07.190Z,29.70
2022-09-07T19:02:33.968Z,29.70
2022-09-07T19:07:47.337Z,29.60
2022-09-07T19:10:16.198Z,29.50
2022-09-07T19:12:45.909Z,29.40
2022-09-07T19:15:13.239Z,29.40
2022-09-07T19:17:40.130Z,29.30
2022-09-07T19:20:07.099Z,29.30
2022-09-07T19:22:33.750Z,29.20
2022-09-07T19:25:00.378Z,29.20
2022-09-07T19:27:27.778Z,29.10
2022-09-07T19:29:54.399Z,29.00
2022-09-07T19:32:21.818Z,28.90
2022-09-07T19:34:54.296Z,28.90
2022-09-07T19:37:25.467Z,28.80
2022-09-07T19:39:55.030Z,28.70
2022-09-07T19:42:22.445Z,28.70
2022-09-07T19:44:49.320Z,28.60
2022-09-07T19:47:16.172Z,28.60
2022-09-07T19:49:42.915Z,28.50
2022-09-07T19:52:09.605Z,28.50
2022-09-07T19:54:37.106Z,28.40
2022-09-07T19:57:05.035Z,28.40
2022-09-07T19:59:31.657Z,28.20
2022-09-07T20:01:58.285Z,28.20
2022-09-07T20:04:25.019Z,28.20
2022-09-07T20:06:52.352Z,28.10
2022-09-07T20:09:19.964Z,28.10
2022-09-07T20:11:47.699Z,28.00
2022-09-07T20:14:15.589Z,27.90
2022-09-07T20:16:42.415Z,27.90
2022-09-07T20:19:11.631Z,27.90
2022-09-07T20:21:38.256Z,27.80
2022-09-07T20:24:05.149Z,27.80
2022-09-07T20:26:32.501Z,27.70
2022-09-07T20:29:16.770Z,27.70
2022-09-07T20:31:46.791Z,27.60
2022-09-07T20:34:13.766Z,27.60
2022-09-07T20:36:40.477Z,27.50
2022-09-07T20:39:07.235Z,27.50
2022-09-07T20:41:34.273Z,27.40
2022-09-07T20:44:02.563Z,27.40
2022-09-07T20:46:32.435Z,27.40
2022-09-07T20:48:59.166Z,27.30
2022-09-07T20:51:26.056Z,27.30
2022-09-07T20:53:52.894Z,27.20
2022-09-07T20:56:20.515Z,27.20
2022-09-07T20:58:48.345Z,27.10
2022-09-07T21:01:17.821Z,27.10
2022-09-07T21:03:49.574Z,27.00
2022-09-07T21:06:17.045Z,27.00
2022-09-07T21:08:44.673Z,27.00
2022-09-07T21:11:15.581Z,26.90
2022-09-07T21:13:42.664Z,26.90
2022-09-07T21:16:11.704Z,26.90
2022-09-07T21:18:39.839Z,26.80
2022-09-07T21:21:22.154Z,26.80
2022-09-07T21:23:49.041Z,26.70
2022-09-07T21:26:20.164Z,26.70
2022-09-07T21:28:46.774Z,26.70
2022-09-07T21:31:13.477Z,26.60
2022-09-07T21:33:40.168Z,26.50
2022-09-07T21:36:09.683Z,26.60
2022-09-07T21:38:37.359Z,26.50
2022-09-07T21:41:12.158Z,26.50
2022-09-07T21:43:39.368Z,26.40
2022-09-07T21:46:13.709Z,26.40
2022-09-07T21:48:40.388Z,26.40
2022-09-07T21:51:07.429Z,26.30
2022-09-07T21:53:34.720Z,26.30
2022-09-07T21:56:04.602Z,26.30
2022-09-07T21:58:31.916Z,26.20
2022-09-07T22:01:00.756Z,26.20
2022-09-07T22:03:27.536Z,26.20
2022-09-07T22:05:54.223Z,26.20
2022-09-07T22:08:20.891Z,26.10
2022-09-07T22:10:47.690Z,26.10
2022-09-07T22:13:14.300Z,26.00
2022-09-07T22:15:41.554Z,26.00
2022-09-07T22:18:11.439Z,26.00
2022-09-07T22:20:38.062Z,26.00
2022-09-07T22:23:07.835Z,25.90
2022-09-07T22:25:34.927Z,25.90
2022-09-07T22:28:01.693Z,25.90
2022-09-07T22:30:28.339Z,25.80
2022-09-07T22:32:54.960Z,25.80
2022-09-07T22:35:24.010Z,25.80
2022-09-07T22:37:50.648Z,25.80
2022-09-07T22:40:17.415Z,25.80
2022-09-07T22:42:44.042Z,25.70
2022-09-07T22:45:10.782Z,25.70
2022-09-07T22:47:37.367Z,25.70
2022-09-07T22:50:04.175Z,25.70
2022-09-07T22:52:30.844Z,25.60
2022-09-07T22:54:57.444Z,25.60
2022-09-07T22:57:24.047Z,25.60
2022-09-07T22:59:51.645Z,25.60
2022-09-07T23:02:18.258Z,25.60
2022-09-07T23:04:44.954Z,25.50
2022-09-07T23:07:11.774Z,25.40
2022-09-07T23:09:38.374Z,25.50
2022-09-07T23:12:05.067Z,25.50
2022-09-07T23:14:31.667Z,25.40
2022-09-07T23:16:58.375Z,25.40
2022-09-07T23:19:25.061Z,25.40
2022-09-07T23:21:51.770Z,25.40
2022-09-07T23:24:19.118Z,25.30
2022-09-07T23:26:46.872Z,25.30
2022-09-07T23:29:14.435Z,25.30
2022-09-07T23:31:41.821Z,25.30
2022-09-07T23:34:08.719Z,25.20
2022-09-07T23:36:35.620Z,25.20
2022-09-07T23:39:02.269Z,25.20
2022-09-07T23:41:28.987Z,25.20
2022-09-07T23:43:55.932Z,25.20
2022-09-07T23:46:23.224Z,25.10
2022-09-07T23:48:50.405Z,25.10
2022-09-07T23:51:22.731Z,25.10
2022-09-07T23:53:50.785Z,25.10
2022-09-07T23:56:17.441Z,25.00
2022-09-07T23:58:44.131Z,25.00
